sensor_id;sensor_type;location;lat;lon;timestamp;temperature;humidity
13998;DHT22;7074;51.508;7.018;2023-04-24T00:01:11;13.00;99.90
13998;DHT22;7074;51.508;7.018;2023-04-24T00:03:39;13.00;99.90
13998;DHT22;7074;51.508;7.018;2023-04-24T00:06:07;13.00;99.90
13998;DHT22;7074;51.508;7.018;2023-04-24T00:08:38;13.00;99.90
13998;DHT22;7074;51.508;7.018;2023-04-24T00:11:13;13.00;99.90
13998;DHT22;7074;51.508;7.018;2023-04-24T00:13:51;13.10;99.90
13998;DHT22;7074;51.508;7.018;2023-04-24T00:16:37;13.10;99.90
13998;DHT22;7074;51.508;7.018;2023-04-24T00:19:37;13.10;99.90
13998;DHT22;7074;51.508;7.018;2023-04-24T00:22:05;13.10;99.90
13998;DHT22;7074;51.508;7.018;2023-04-24T00:24:32;13.20;99.90
13998;DHT22;7074;51.508;7.018;2023-04-24T00:27:00;13.10;99.90
13998;DHT22;7074;51.508;7.018;2023-04-24T00:29:28;13.10;99.90
13998;DHT22;7074;51.508;7.018;2023-04-24T00:32:05;13.10;99.90
13998;DHT22;7074;51.508;7.018;2023-04-24T00:34:43;13.10;99.90
13998;DHT22;7074;51.508;7.018;2023-04-24T00:37:10;13.10;99.90
13998;DHT22;7074;51.508;7.018;2023-04-24T00:39:38;13.10;99.90
13998;DHT22;7074;51.508;7.018;2023-04-24T00:42:05;13.10;99.90
13998;DHT22;7074;51.508;7.018;2023-04-24T00:44:33;13.00;99.90
13998;DHT22;7074;51.508;7.018;2023-04-24T00:47:02;13.10;99.90
13998;DHT22;7074;51.508;7.018;2023-04-24T00:49:30;13.00;99.90
13998;DHT22;7074;51.508;7.018;2023-04-24T00:51:57;13.00;99.90
13998;DHT22;7074;51.508;7.018;2023-04-24T00:54:39;13.00;99.90
13998;DHT22;7074;51.508;7.018;2023-04-24T00:57:06;12.90;99.90
13998;DHT22;7074;51.508;7.018;2023-04-24T00:59:34;13.00;99.90
13998;DHT22;7074;51.508;7.018;2023-04-24T01:02:04;13.00;99.90
13998;DHT22;7074;51.508;7.018;2023-04-24T03:38:59;11.80;99.90
13998;DHT22;7074;51.508;7.018;2023-04-24T03:41:29;11.80;99.90
13998;DHT22;7074;51.508;7.018;2023-04-24T03:44:23;11.80;99.90
13998;DHT22;7074;51.508;7.018;2023-04-24T03:46:50;11.80;99.90
13998;DHT22;7074;51.508;7.018;2023-04-24T03:49:20;11.80;99.90
13998;DHT22;7074;51.508;7.018;2023-04-24T03:51:48;11.80;99.90
13998;DHT22;7074;51.508;7.018;2023-04-24T03:54:26;11.80;99.90
13998;DHT22;7074;51.508;7.018;2023-04-24T03:56:53;11.80;99.90
13998;DHT22;7074;51.508;7.018;2023-04-24T03:59:21;11.90;99.90
13998;DHT22;7074;51.508;7.018;2023-04-24T04:02:00;11.90;99.90
13998;DHT22;7074;51.508;7.018;2023-04-24T04:04:28;11.90;99.90
13998;DHT22;7074;51.508;7.018;2023-04-24T04:06:55;12.00;99.90
13998;DHT22;7074;51.508;7.018;2023-04-24T04:09:25;12.00;99.90
13998;DHT22;7074;51.508;7.018;2023-04-24T04:11:53;11.90;99.90
13998;DHT22;7074;51.508;7.018;2023-04-24T04:14:21;11.90;99.90
13998;DHT22;7074;51.508;7.018;2023-04-24T04:16:48;11.90;99.90
13998;DHT22;7074;51.508;7.018;2023-04-24T04:19:16;11.90;99.90
13998;DHT22;7074;51.508;7.018;2023-04-24T04:21:43;11.90;99.90
13998;DHT22;7074;51.508;7.018;2023-04-24T04:24:32;11.90;99.90
13998;DHT22;7074;51.508;7.018;2023-04-24T04:27:04;11.90;99.90
13998;DHT22;7074;51.508;7.018;2023-04-24T04:29:37;11.90;99.90
13998;DHT22;7074;51.508;7.018;2023-04-24T04:32:08;11.80;99.90
13998;DHT22;7074;51.508;7.018;2023-04-24T04:34:35;11.80;99.90
13998;DHT22;7074;51.508;7.018;2023-04-24T04:37:04;11.80;99.90
13998;DHT22;7074;51.508;7.018;2023-04-24T04:39:53;11.80;99.90
13998;DHT22;7074;51.508;7.018;2023-04-24T04:42:24;11.80;99.90
13998;DHT22;7074;51.508;7.018;2023-04-24T04:44:51;11.80;99.90
13998;DHT22;7074;51.508;7.018;2023-04-24T04:47:24;11.80;99.90
13998;DHT22;7074;51.508;7.018;2023-04-24T04:49:54;11.80;99.90
13998;DHT22;7074;51.508;7.018;2023-04-24T04:52:25;11.80;99.90
13998;DHT22;7074;51.508;7.018;2023-04-24T04:55:04;11.90;99.90
13998;DHT22;7074;51.508;7.018;2023-04-24T04:57:51;11.90;99.90
13998;DHT22;7074;51.508;7.018;2023-04-24T05:00:19;11.90;99.90
13998;DHT22;7074;51.508;7.018;2023-04-24T05:02:51;11.90;99.90
13998;DHT22;7074;51.508;7.018;2023-04-24T05:05:18;11.90;99.90
13998;DHT22;7074;51.508;7.018;2023-04-24T05:07:46;11.90;99.90
13998;DHT22;7074;51.508;7.018;2023-04-24T05:10:15;11.90;99.90
13998;DHT22;7074;51.508;7.018;2023-04-24T05:12:43;11.90;99.90
13998;DHT22;7074;51.508;7.018;2023-04-24T05:15:11;11.90;99.90
13998;DHT22;7074;51.508;7.018;2023-04-24T05:17:39;11.90;99.90
13998;DHT22;7074;51.508;7.018;2023-04-24T05:20:07;11.90;99.90
13998;DHT22;7074;51.508;7.018;2023-04-24T05:22:35;11.90;99.90
13998;DHT22;7074;51.508;7.018;2023-04-24T05:25:03;11.90;99.90
13998;DHT22;7074;51.508;7.018;2023-04-24T05:27:43;11.90;99.90
13998;DHT22;7074;51.508;7.018;2023-04-24T05:30:17;11.90;99.90
13998;DHT22;7074;51.508;7.018;2023-04-24T05:32:45;11.80;99.90
13998;DHT22;7074;51.508;7.018;2023-04-24T05:35:13;11.80;99.90
13998;DHT22;7074;51.508;7.018;2023-04-24T05:37:41;11.80;99.90
13998;DHT22;7074;51.508;7.018;2023-04-24T05:40:10;11.80;99.90
13998;DHT22;7074;51.508;7.018;2023-04-24T05:42:37;11.70;99.90
13998;DHT22;7074;51.508;7.018;2023-04-24T05:45:07;11.60;99.90
13998;DHT22;7074;51.508;7.018;2023-04-24T05:47:37;11.60;99.90
13998;DHT22;7074;51.508;7.018;2023-04-24T05:50:06;11.60;99.90
13998;DHT22;7074;51.508;7.018;2023-04-24T05:52:33;11.50;99.90
13998;DHT22;7074;51.508;7.018;2023-04-24T05:55:05;11.50;99.90
13998;DHT22;7074;51.508;7.018;2023-04-24T05:57:37;11.50;99.90
13998;DHT22;7074;51.508;7.018;2023-04-24T06:00:09;11.50;99.90
13998;DHT22;7074;51.508;7.018;2023-04-24T06:02:49;11.40;99.90
13998;DHT22;7074;51.508;7.018;2023-04-24T06:05:17;11.40;99.90
13998;DHT22;7074;51.508;7.018;2023-04-24T06:07:50;11.50;99.90
13998;DHT22;7074;51.508;7.018;2023-04-24T06:10:27;11.40;99.90
13998;DHT22;7074;51.508;7.018;2023-04-24T06:13:30;11.40;99.90
13998;DHT22;7074;51.508;7.018;2023-04-24T06:16:37;11.40;99.90
13998;DHT22;7074;51.508;7.018;2023-04-24T06:19:25;11.40;99.90
13998;DHT22;7074;51.508;7.018;2023-04-24T06:22:00;11.30;99.90
13998;DHT22;7074;51.508;7.018;2023-04-24T06:24:40;11.30;99.90
13998;DHT22;7074;51.508;7.018;2023-04-24T06:27:31;11.30;99.90
13998;DHT22;7074;51.508;7.018;2023-04-24T06:31:02;11.30;99.90
13998;DHT22;7074;51.508;7.018;2023-04-24T06:33:32;11.40;99.90
13998;DHT22;7074;51.508;7.018;2023-04-24T06:37:09;11.50;99.90
13998;DHT22;7074;51.508;7.018;2023-04-24T06:39:29;11.50;99.90
13998;DHT22;7074;51.508;7.018;2023-04-24T06:43:03;11.50;99.90
13998;DHT22;7074;51.508;7.018;2023-04-24T06:45:30;11.50;99.90
13998;DHT22;7074;51.508;7.018;2023-04-24T06:48:35;11.50;99.90
13998;DHT22;7074;51.508;7.018;2023-04-24T06:52:02;11.40;99.90
13998;DHT22;7074;51.508;7.018;2023-04-24T06:55:47;11.40;99.90
13998;DHT22;7074;51.508;7.018;2023-04-24T06:57:54;11.40;99.90
13998;DHT22;7074;51.508;7.018;2023-04-24T07:02:35;11.50;99.90
13998;DHT22;7074;51.508;7.018;2023-04-24T07:05:04;11.50;99.90
13998;DHT22;7074;51.508;7.018;2023-04-24T07:07:37;11.50;99.90
13998;DHT22;7074;51.508;7.018;2023-04-24T07:11:43;11.50;99.90
13998;DHT22;7074;51.508;7.018;2023-04-24T07:14:10;11.50;99.90
13998;DHT22;7074;51.508;7.018;2023-04-24T07:16:42;11.30;99.90
13998;DHT22;7074;51.508;7.018;2023-04-24T07:19:56;11.40;99.90
13998;DHT22;7074;51.508;7.018;2023-04-24T07:26:01;11.30;99.90
13998;DHT22;7074;51.508;7.018;2023-04-24T07:28:48;11.40;99.90
13998;DHT22;7074;51.508;7.018;2023-04-24T07:31:41;11.30;99.90
13998;DHT22;7074;51.508;7.018;2023-04-24T07:35:05;11.30;99.90
13998;DHT22;7074;51.508;7.018;2023-04-24T07:41:07;11.30;99.90
13998;DHT22;7074;51.508;7.018;2023-04-24T07:55:03;11.40;99.90
13998;DHT22;7074;51.508;7.018;2023-04-24T08:00:59;11.40;99.90
13998;DHT22;7074;51.508;7.018;2023-04-24T08:07:51;11.30;99.90
13998;DHT22;7074;51.508;7.018;2023-04-24T08:10:32;11.10;99.90
13998;DHT22;7074;51.508;7.018;2023-04-24T08:13:26;11.10;99.90
13998;DHT22;7074;51.508;7.018;2023-04-24T08:20:02;11.00;99.90
13998;DHT22;7074;51.508;7.018;2023-04-24T08:23:18;10.90;99.90
13998;DHT22;7074;51.508;7.018;2023-04-24T08:30:06;10.80;99.90
13998;DHT22;7074;51.508;7.018;2023-04-24T08:37:12;10.80;99.90
13998;DHT22;7074;51.508;7.018;2023-04-24T08:39:42;10.80;99.90
13998;DHT22;7074;51.508;7.018;2023-04-24T08:46:19;10.80;99.90
13998;DHT22;7074;51.508;7.018;2023-04-24T08:49:06;10.70;99.90
13998;DHT22;7074;51.508;7.018;2023-04-24T08:51:57;10.80;99.90
13998;DHT22;7074;51.508;7.018;2023-04-24T08:55:23;10.80;99.90
13998;DHT22;7074;51.508;7.018;2023-04-24T08:57:57;10.70;99.90
13998;DHT22;7074;51.508;7.018;2023-04-24T09:00:37;10.70;99.90
13998;DHT22;7074;51.508;7.018;2023-04-24T09:07:22;10.70;99.90
13998;DHT22;7074;51.508;7.018;2023-04-24T09:09:56;10.80;99.90
13998;DHT22;7074;51.508;7.018;2023-04-24T09:12:38;10.80;99.90
13998;DHT22;7074;51.508;7.018;2023-04-24T09:15:12;11.00;99.90
13998;DHT22;7074;51.508;7.018;2023-04-24T09:17:43;10.90;99.90
13998;DHT22;7074;51.508;7.018;2023-04-24T09:20:14;11.00;99.90
13998;DHT22;7074;51.508;7.018;2023-04-24T09:22:42;11.00;99.90
13998;DHT22;7074;51.508;7.018;2023-04-24T09:25:10;11.00;99.90
13998;DHT22;7074;51.508;7.018;2023-04-24T09:27:46;11.10;99.90
13998;DHT22;7074;51.508;7.018;2023-04-24T09:30:26;11.10;99.90
13998;DHT22;7074;51.508;7.018;2023-04-24T09:33:10;11.10;99.90
13998;DHT22;7074;51.508;7.018;2023-04-24T09:35:43;11.10;99.90
13998;DHT22;7074;51.508;7.018;2023-04-24T09:38:19;11.10;99.90
13998;DHT22;7074;51.508;7.018;2023-04-24T09:40:55;11.00;99.90
13998;DHT22;7074;51.508;7.018;2023-04-24T09:43:28;10.80;99.90
13998;DHT22;7074;51.508;7.018;2023-04-24T09:45:56;10.80;99.90
13998;DHT22;7074;51.508;7.018;2023-04-24T09:48:32;10.80;99.90
13998;DHT22;7074;51.508;7.018;2023-04-24T09:51:01;10.70;99.90
13998;DHT22;7074;51.508;7.018;2023-04-24T09:53:31;10.70;99.90
13998;DHT22;7074;51.508;7.018;2023-04-24T09:56:06;10.60;99.90
13998;DHT22;7074;51.508;7.018;2023-04-24T09:58:42;10.50;99.90
13998;DHT22;7074;51.508;7.018;2023-04-24T10:01:14;10.50;99.90
13998;DHT22;7074;51.508;7.018;2023-04-24T10:03:43;10.50;99.90
13998;DHT22;7074;51.508;7.018;2023-04-24T10:06:13;10.50;99.90
13998;DHT22;7074;51.508;7.018;2023-04-24T10:08:42;10.50;99.90
13998;DHT22;7074;51.508;7.018;2023-04-24T10:11:12;10.40;99.90
13998;DHT22;7074;51.508;7.018;2023-04-24T10:13:42;10.50;99.90
13998;DHT22;7074;51.508;7.018;2023-04-24T10:16:10;10.50;99.90
13998;DHT22;7074;51.508;7.018;2023-04-24T10:18:39;10.50;99.90
13998;DHT22;7074;51.508;7.018;2023-04-24T10:21:07;10.50;99.90
13998;DHT22;7074;51.508;7.018;2023-04-24T10:23:35;10.60;99.90
13998;DHT22;7074;51.508;7.018;2023-04-24T10:26:03;10.60;99.90
13998;DHT22;7074;51.508;7.018;2023-04-24T10:28:32;10.70;99.90
13998;DHT22;7074;51.508;7.018;2023-04-24T10:31:03;10.80;99.90
13998;DHT22;7074;51.508;7.018;2023-04-24T10:33:34;10.70;99.90
13998;DHT22;7074;51.508;7.018;2023-04-24T10:36:04;10.70;99.90
13998;DHT22;7074;51.508;7.018;2023-04-24T10:38:32;10.70;99.90
13998;DHT22;7074;51.508;7.018;2023-04-24T10:41:07;10.60;99.90
13998;DHT22;7074;51.508;7.018;2023-04-24T10:43:42;10.60;99.90
13998;DHT22;7074;51.508;7.018;2023-04-24T10:46:19;10.50;99.90
13998;DHT22;7074;51.508;7.018;2023-04-24T10:48:52;10.50;99.90
13998;DHT22;7074;51.508;7.018;2023-04-24T10:51:46;10.60;99.90
13998;DHT22;7074;51.508;7.018;2023-04-24T10:54:34;10.70;99.90
13998;DHT22;7074;51.508;7.018;2023-04-24T10:57:27;10.70;99.90
13998;DHT22;7074;51.508;7.018;2023-04-24T11:00:30;10.60;99.90
13998;DHT22;7074;51.508;7.018;2023-04-24T11:03:04;10.70;99.90
13998;DHT22;7074;51.508;7.018;2023-04-24T11:05:53;10.70;99.90
13998;DHT22;7074;51.508;7.018;2023-04-24T11:08:43;10.70;99.90
13998;DHT22;7074;51.508;7.018;2023-04-24T11:11:12;10.70;99.90
13998;DHT22;7074;51.508;7.018;2023-04-24T11:14:07;10.80;99.90
13998;DHT22;7074;51.508;7.018;2023-04-24T11:16:38;10.80;99.90
13998;DHT22;7074;51.508;7.018;2023-04-24T11:19:20;10.80;99.90
13998;DHT22;7074;51.508;7.018;2023-04-24T11:21:57;11.00;99.90
13998;DHT22;7074;51.508;7.018;2023-04-24T11:24:39;11.10;99.90
13998;DHT22;7074;51.508;7.018;2023-04-24T11:27:19;11.30;99.90
13998;DHT22;7074;51.508;7.018;2023-04-24T11:30:16;11.30;99.90
13998;DHT22;7074;51.508;7.018;2023-04-24T11:33:05;11.50;99.90
13998;DHT22;7074;51.508;7.018;2023-04-24T11:38:58;11.70;99.90
13998;DHT22;7074;51.508;7.018;2023-04-24T11:41:33;11.70;99.90
13998;DHT22;7074;51.508;7.018;2023-04-24T11:44:14;11.60;99.90
13998;DHT22;7074;51.508;7.018;2023-04-24T11:46:43;11.60;99.90
13998;DHT22;7074;51.508;7.018;2023-04-24T11:49:13;11.60;99.90
13998;DHT22;7074;51.508;7.018;2023-04-24T11:51:55;11.50;99.90
13998;DHT22;7074;51.508;7.018;2023-04-24T11:54:50;11.60;99.90
13998;DHT22;7074;51.508;7.018;2023-04-24T11:57:38;11.60;99.90
13998;DHT22;7074;51.508;7.018;2023-04-24T12:00:18;11.60;99.90
13998;DHT22;7074;51.508;7.018;2023-04-24T12:02:47;11.60;99.90
13998;DHT22;7074;51.508;7.018;2023-04-24T12:05:40;11.60;99.90
13998;DHT22;7074;51.508;7.018;2023-04-24T12:08:07;11.70;99.90
13998;DHT22;7074;51.508;7.018;2023-04-24T12:10:48;11.70;99.90
13998;DHT22;7074;51.508;7.018;2023-04-24T12:14:05;11.70;99.90
13998;DHT22;7074;51.508;7.018;2023-04-24T12:16:33;11.70;99.90
13998;DHT22;7074;51.508;7.018;2023-04-24T12:19:10;11.80;99.90
13998;DHT22;7074;51.508;7.018;2023-04-24T12:22:11;11.70;99.90
13998;DHT22;7074;51.508;7.018;2023-04-24T12:24:29;11.60;99.90
13998;DHT22;7074;51.508;7.018;2023-04-24T12:27:33;11.60;99.90
13998;DHT22;7074;51.508;7.018;2023-04-24T12:31:31;11.60;99.90
13998;DHT22;7074;51.508;7.018;2023-04-24T12:33:28;11.60;99.90
13998;DHT22;7074;51.508;7.018;2023-04-24T12:36:10;11.60;99.90
13998;DHT22;7074;51.508;7.018;2023-04-24T12:38:39;11.60;99.90
13998;DHT22;7074;51.508;7.018;2023-04-24T12:41:13;11.50;99.90
13998;DHT22;7074;51.508;7.018;2023-04-24T12:43:52;11.60;99.90
13998;DHT22;7074;51.508;7.018;2023-04-24T12:46:21;11.60;99.90
13998;DHT22;7074;51.508;7.018;2023-04-24T12:48:48;11.60;99.90
13998;DHT22;7074;51.508;7.018;2023-04-24T12:51:15;11.60;99.90
13998;DHT22;7074;51.508;7.018;2023-04-24T12:53:43;11.60;99.90
13998;DHT22;7074;51.508;7.018;2023-04-24T12:56:10;11.60;99.90
13998;DHT22;7074;51.508;7.018;2023-04-24T12:58:37;11.60;99.90
13998;DHT22;7074;51.508;7.018;2023-04-24T13:01:06;11.80;99.90
13998;DHT22;7074;51.508;7.018;2023-04-24T13:03:33;12.00;99.90
13998;DHT22;7074;51.508;7.018;2023-04-24T13:06:01;12.20;99.90
13998;DHT22;7074;51.508;7.018;2023-04-24T13:08:28;12.20;99.90
13998;DHT22;7074;51.508;7.018;2023-04-24T13:10:55;12.10;99.90
13998;DHT22;7074;51.508;7.018;2023-04-24T13:13:23;12.20;99.90
13998;DHT22;7074;51.508;7.018;2023-04-24T13:15:50;12.20;99.90
13998;DHT22;7074;51.508;7.018;2023-04-24T13:18:19;12.20;99.90
13998;DHT22;7074;51.508;7.018;2023-04-24T13:20:46;12.10;99.90
13998;DHT22;7074;51.508;7.018;2023-04-24T13:23:14;12.20;99.90
13998;DHT22;7074;51.508;7.018;2023-04-24T13:25:41;12.10;99.90
13998;DHT22;7074;51.508;7.018;2023-04-24T13:28:09;12.00;99.90
13998;DHT22;7074;51.508;7.018;2023-04-24T13:30:37;12.00;99.90
13998;DHT22;7074;51.508;7.018;2023-04-24T13:33:04;12.00;99.90
13998;DHT22;7074;51.508;7.018;2023-04-24T13:35:33;11.90;99.90
13998;DHT22;7074;51.508;7.018;2023-04-24T13:38:00;12.00;99.90
13998;DHT22;7074;51.508;7.018;2023-04-24T13:40:31;12.00;99.90
13998;DHT22;7074;51.508;7.018;2023-04-24T13:42:58;12.00;99.90
13998;DHT22;7074;51.508;7.018;2023-04-24T13:45:26;12.00;99.90
13998;DHT22;7074;51.508;7.018;2023-04-24T13:47:53;12.00;99.90
13998;DHT22;7074;51.508;7.018;2023-04-24T13:50:22;12.00;99.90
13998;DHT22;7074;51.508;7.018;2023-04-24T13:52:51;12.00;99.90
13998;DHT22;7074;51.508;7.018;2023-04-24T13:55:19;12.00;99.90
13998;DHT22;7074;51.508;7.018;2023-04-24T13:57:46;12.10;99.90
13998;DHT22;7074;51.508;7.018;2023-04-24T14:00:14;12.30;99.90
13998;DHT22;7074;51.508;7.018;2023-04-24T14:02:41;12.50;99.90
13998;DHT22;7074;51.508;7.018;2023-04-24T14:05:09;12.60;99.90
13998;DHT22;7074;51.508;7.018;2023-04-24T14:07:37;12.90;99.90
13998;DHT22;7074;51.508;7.018;2023-04-24T14:10:07;13.00;99.90
13998;DHT22;7074;51.508;7.018;2023-04-24T14:12:35;13.00;99.90
13998;DHT22;7074;51.508;7.018;2023-04-24T14:15:03;13.00;99.90
13998;DHT22;7074;51.508;7.018;2023-04-24T14:17:31;13.00;99.90
13998;DHT22;7074;51.508;7.018;2023-04-24T14:19:58;12.90;99.90
13998;DHT22;7074;51.508;7.018;2023-04-24T14:22:26;12.90;99.90
13998;DHT22;7074;51.508;7.018;2023-04-24T14:24:53;12.90;99.90
13998;DHT22;7074;51.508;7.018;2023-04-24T14:27:22;12.70;99.90
13998;DHT22;7074;51.508;7.018;2023-04-24T14:29:53;12.60;99.90
13998;DHT22;7074;51.508;7.018;2023-04-24T14:32:20;12.40;99.90
13998;DHT22;7074;51.508;7.018;2023-04-24T14:34:47;12.40;99.90
13998;DHT22;7074;51.508;7.018;2023-04-24T14:37:15;12.40;99.90
13998;DHT22;7074;51.508;7.018;2023-04-24T14:39:42;12.30;99.90
13998;DHT22;7074;51.508;7.018;2023-04-24T14:42:09;12.40;99.90
13998;DHT22;7074;51.508;7.018;2023-04-24T14:44:38;12.30;99.90
13998;DHT22;7074;51.508;7.018;2023-04-24T14:47:06;12.30;99.90
13998;DHT22;7074;51.508;7.018;2023-04-24T14:49:33;12.20;99.90
13998;DHT22;7074;51.508;7.018;2023-04-24T14:52:00;12.20;99.90
13998;DHT22;7074;51.508;7.018;2023-04-24T14:54:28;12.20;99.90
13998;DHT22;7074;51.508;7.018;2023-04-24T14:56:56;12.20;99.90
13998;DHT22;7074;51.508;7.018;2023-04-24T14:59:24;12.20;99.90
13998;DHT22;7074;51.508;7.018;2023-04-24T15:01:53;12.10;99.90
13998;DHT22;7074;51.508;7.018;2023-04-24T15:04:23;12.00;99.90
13998;DHT22;7074;51.508;7.018;2023-04-24T15:06:51;12.00;99.90
13998;DHT22;7074;51.508;7.018;2023-04-24T15:09:19;12.10;99.90
13998;DHT22;7074;51.508;7.018;2023-04-24T15:11:48;12.10;99.90
13998;DHT22;7074;51.508;7.018;2023-04-24T15:14:16;12.10;99.90
13998;DHT22;7074;51.508;7.018;2023-04-24T15:16:43;12.10;99.90
13998;DHT22;7074;51.508;7.018;2023-04-24T15:19:12;12.20;99.90
13998;DHT22;7074;51.508;7.018;2023-04-24T15:21:39;12.20;99.90
13998;DHT22;7074;51.508;7.018;2023-04-24T15:24:08;12.30;99.90
13998;DHT22;7074;51.508;7.018;2023-04-24T15:26:35;12.40;99.90
13998;DHT22;7074;51.508;7.018;2023-04-24T15:29:03;12.60;99.90
13998;DHT22;7074;51.508;7.018;2023-04-24T15:31:30;12.70;99.90
13998;DHT22;7074;51.508;7.018;2023-04-24T15:33:57;12.80;99.90
13998;DHT22;7074;51.508;7.018;2023-04-24T15:36:26;12.80;99.90
13998;DHT22;7074;51.508;7.018;2023-04-24T15:38:54;12.80;99.90
13998;DHT22;7074;51.508;7.018;2023-04-24T15:41:21;12.80;99.90
13998;DHT22;7074;51.508;7.018;2023-04-24T15:43:48;12.90;99.90
13998;DHT22;7074;51.508;7.018;2023-04-24T15:46:16;12.90;99.90
13998;DHT22;7074;51.508;7.018;2023-04-24T15:48:43;13.10;99.90
13998;DHT22;7074;51.508;7.018;2023-04-24T15:51:10;13.00;99.90
13998;DHT22;7074;51.508;7.018;2023-04-24T15:53:39;13.40;99.90
13998;DHT22;7074;51.508;7.018;2023-04-24T15:56:06;13.30;99.90
13998;DHT22;7074;51.508;7.018;2023-04-24T15:58:34;13.20;99.90
13998;DHT22;7074;51.508;7.018;2023-04-24T16:01:01;13.20;99.90
13998;DHT22;7074;51.508;7.018;2023-04-24T16:03:28;13.20;99.90
13998;DHT22;7074;51.508;7.018;2023-04-24T16:05:55;13.30;99.90
13998;DHT22;7074;51.508;7.018;2023-04-24T16:08:23;13.30;99.90
13998;DHT22;7074;51.508;7.018;2023-04-24T16:10:52;13.40;99.90
13998;DHT22;7074;51.508;7.018;2023-04-24T16:13:19;13.60;99.90
13998;DHT22;7074;51.508;7.018;2023-04-24T16:15:53;13.60;99.90
13998;DHT22;7074;51.508;7.018;2023-04-24T16:18:33;13.60;99.90
13998;DHT22;7074;51.508;7.018;2023-04-24T16:24:29;13.40;99.90
13998;DHT22;7074;51.508;7.018;2023-04-24T16:33:27;13.10;99.90
13998;DHT22;7074;51.508;7.018;2023-04-24T16:35:56;13.10;99.90
13998;DHT22;7074;51.508;7.018;2023-04-24T16:38:23;13.10;99.90
13998;DHT22;7074;51.508;7.018;2023-04-24T16:40:51;13.00;99.90
13998;DHT22;7074;51.508;7.018;2023-04-24T16:43:18;12.90;99.90
13998;DHT22;7074;51.508;7.018;2023-04-24T16:45:45;12.80;99.90
13998;DHT22;7074;51.508;7.018;2023-04-24T16:48:12;12.70;99.90
13998;DHT22;7074;51.508;7.018;2023-04-24T16:50:41;12.70;99.90
13998;DHT22;7074;51.508;7.018;2023-04-24T16:53:08;12.60;99.90
13998;DHT22;7074;51.508;7.018;2023-04-24T16:55:36;12.60;99.90
13998;DHT22;7074;51.508;7.018;2023-04-24T16:58:03;12.50;99.90
13998;DHT22;7074;51.508;7.018;2023-04-24T17:00:30;12.50;99.90
13998;DHT22;7074;51.508;7.018;2023-04-24T17:03:13;12.50;99.90
13998;DHT22;7074;51.508;7.018;2023-04-24T17:06:06;12.30;99.90
13998;DHT22;7074;51.508;7.018;2023-04-24T17:09:13;12.20;99.90
13998;DHT22;7074;51.508;7.018;2023-04-24T17:11:46;12.00;99.90
13998;DHT22;7074;51.508;7.018;2023-04-24T17:14:13;12.10;99.90
13998;DHT22;7074;51.508;7.018;2023-04-24T17:16:41;12.00;99.90
13998;DHT22;7074;51.508;7.018;2023-04-24T17:19:10;11.90;99.90
13998;DHT22;7074;51.508;7.018;2023-04-24T17:21:39;12.00;99.90
13998;DHT22;7074;51.508;7.018;2023-04-24T17:24:07;12.00;99.90
13998;DHT22;7074;51.508;7.018;2023-04-24T17:26:34;12.00;99.90
13998;DHT22;7074;51.508;7.018;2023-04-24T17:29:01;12.00;99.90
13998;DHT22;7074;51.508;7.018;2023-04-24T17:31:28;11.90;99.90
13998;DHT22;7074;51.508;7.018;2023-04-24T17:33:56;12.00;99.90
13998;DHT22;7074;51.508;7.018;2023-04-24T17:36:24;11.90;99.90
13998;DHT22;7074;51.508;7.018;2023-04-24T17:38:53;11.90;99.90
13998;DHT22;7074;51.508;7.018;2023-04-24T17:41:21;11.90;99.90
13998;DHT22;7074;51.508;7.018;2023-04-24T17:43:49;12.00;99.90
13998;DHT22;7074;51.508;7.018;2023-04-24T17:46:16;12.00;99.90
13998;DHT22;7074;51.508;7.018;2023-04-24T17:48:43;12.00;99.90
13998;DHT22;7074;51.508;7.018;2023-04-24T17:51:11;12.10;99.90
13998;DHT22;7074;51.508;7.018;2023-04-24T17:53:38;12.10;99.90
13998;DHT22;7074;51.508;7.018;2023-04-24T17:56:08;12.00;99.90
13998;DHT22;7074;51.508;7.018;2023-04-24T17:58:35;12.00;99.90
13998;DHT22;7074;51.508;7.018;2023-04-24T18:01:02;12.00;99.90
13998;DHT22;7074;51.508;7.018;2023-04-24T18:03:29;12.00;99.90
13998;DHT22;7074;51.508;7.018;2023-04-24T18:05:56;11.90;99.90
13998;DHT22;7074;51.508;7.018;2023-04-24T18:08:24;11.90;99.90
13998;DHT22;7074;51.508;7.018;2023-04-24T18:10:51;11.90;99.90
13998;DHT22;7074;51.508;7.018;2023-04-24T18:13:20;11.90;99.90
13998;DHT22;7074;51.508;7.018;2023-04-24T18:15:47;11.80;99.90
13998;DHT22;7074;51.508;7.018;2023-04-24T18:18:14;11.80;99.90
13998;DHT22;7074;51.508;7.018;2023-04-24T18:20:42;11.80;99.90
13998;DHT22;7074;51.508;7.018;2023-04-24T18:23:10;11.80;99.90
13998;DHT22;7074;51.508;7.018;2023-04-24T18:25:37;11.70;99.90
13998;DHT22;7074;51.508;7.018;2023-04-24T18:28:05;11.70;99.90
13998;DHT22;7074;51.508;7.018;2023-04-24T18:30:33;11.60;99.90
13998;DHT22;7074;51.508;7.018;2023-04-24T18:33:00;11.60;99.90
13998;DHT22;7074;51.508;7.018;2023-04-24T18:35:28;11.60;99.90
13998;DHT22;7074;51.508;7.018;2023-04-24T18:37:55;11.50;99.90
13998;DHT22;7074;51.508;7.018;2023-04-24T18:40:23;11.50;99.90
13998;DHT22;7074;51.508;7.018;2023-04-24T18:42:51;11.40;99.90
13998;DHT22;7074;51.508;7.018;2023-04-24T18:45:18;11.40;99.90
13998;DHT22;7074;51.508;7.018;2023-04-24T18:47:47;11.40;99.90
13998;DHT22;7074;51.508;7.018;2023-04-24T18:50:14;11.40;99.90
13998;DHT22;7074;51.508;7.018;2023-04-24T18:52:42;11.40;99.90
13998;DHT22;7074;51.508;7.018;2023-04-24T18:55:09;11.40;99.90
13998;DHT22;7074;51.508;7.018;2023-04-24T18:57:37;11.40;99.90
13998;DHT22;7074;51.508;7.018;2023-04-24T19:00:05;11.30;99.90
13998;DHT22;7074;51.508;7.018;2023-04-24T19:02:33;11.30;99.90
13998;DHT22;7074;51.508;7.018;2023-04-24T19:05:02;11.30;99.90
13998;DHT22;7074;51.508;7.018;2023-04-24T19:07:29;11.30;99.90
13998;DHT22;7074;51.508;7.018;2023-04-24T19:09:56;11.40;99.90
13998;DHT22;7074;51.508;7.018;2023-04-24T19:12:24;11.40;99.90
13998;DHT22;7074;51.508;7.018;2023-04-24T19:14:51;11.30;99.90
13998;DHT22;7074;51.508;7.018;2023-04-24T19:17:20;11.20;99.90
13998;DHT22;7074;51.508;7.018;2023-04-24T19:19:49;11.20;99.90
13998;DHT22;7074;51.508;7.018;2023-04-24T19:22:18;11.20;99.90
13998;DHT22;7074;51.508;7.018;2023-04-24T19:24:46;11.20;99.90
13998;DHT22;7074;51.508;7.018;2023-04-24T19:27:13;11.20;99.90
13998;DHT22;7074;51.508;7.018;2023-04-24T19:29:40;11.20;99.90
13998;DHT22;7074;51.508;7.018;2023-04-24T19:32:08;11.20;99.90
13998;DHT22;7074;51.508;7.018;2023-04-24T19:34:36;11.20;99.90
13998;DHT22;7074;51.508;7.018;2023-04-24T19:37:03;11.20;99.90
13998;DHT22;7074;51.508;7.018;2023-04-24T19:39:32;11.20;99.90
13998;DHT22;7074;51.508;7.018;2023-04-24T19:41:59;11.30;99.90
13998;DHT22;7074;51.508;7.018;2023-04-24T19:44:27;11.30;99.90
13998;DHT22;7074;51.508;7.018;2023-04-24T19:46:54;11.30;99.90
13998;DHT22;7074;51.508;7.018;2023-04-24T19:49:22;11.20;99.90
13998;DHT22;7074;51.508;7.018;2023-04-24T19:51:49;11.20;99.90
13998;DHT22;7074;51.508;7.018;2023-04-24T19:54:16;11.20;99.90
13998;DHT22;7074;51.508;7.018;2023-04-24T19:56:46;11.20;99.90
13998;DHT22;7074;51.508;7.018;2023-04-24T19:59:13;11.20;99.90
13998;DHT22;7074;51.508;7.018;2023-04-24T20:01:41;11.20;99.90